sensor_id;sensor_type;location;lat;lon;timestamp;pressure;altitude;pressure_sealevel;temperature;humidity
38912;BME280;28444;48.056;14.408;2023-03-22T00:02:09;97485.56;;;9.08;84.42
38912;BME280;28444;48.056;14.408;2023-03-22T00:04:35;97486.50;;;9.03;84.35
38912;BME280;28444;48.056;14.408;2023-03-22T00:07:02;97483.09;;;8.95;84.06
38912;BME280;28444;48.056;14.408;2023-03-22T00:09:28;97478.72;;;8.91;84.73
38912;BME280;28444;48.056;14.408;2023-03-22T00:11:56;97483.50;;;8.83;85.28
38912;BME280;28444;48.056;14.408;2023-03-22T00:14:23;97488.00;;;8.88;85.44
38912;BME280;28444;48.056;14.408;2023-03-22T00:16:49;97482.19;;;8.92;85.62
38912;BME280;28444;48.056;14.408;2023-03-22T00:19:16;97485.81;;;8.95;85.29
38912;BME280;28444;48.056;14.408;2023-03-22T00:21:43;97474.72;;;8.92;84.89
38912;BME280;28444;48.056;14.408;2023-03-22T00:24:10;97483.47;;;8.91;85.31
38912;BME280;28444;48.056;14.408;2023-03-22T00:26:36;97485.28;;;8.88;84.80
38912;BME280;28444;48.056;14.408;2023-03-22T00:29:04;97482.91;;;8.92;85.07
38912;BME280;28444;48.056;14.408;2023-03-22T00:31:31;97476.19;;;8.94;84.85
38912;BME280;28444;48.056;14.408;2023-03-22T00:33:57;97477.78;;;8.97;84.53
38912;BME280;28444;48.056;14.408;2023-03-22T00:36:24;97482.28;;;9.09;83.91
38912;BME280;28444;48.056;14.408;2023-03-22T00:38:51;97476.25;;;9.11;83.97
38912;BME280;28444;48.056;14.408;2023-03-22T00:41:20;97476.78;;;9.17;83.68
38912;BME280;28444;48.056;14.408;2023-03-22T00:43:48;97474.78;;;9.18;83.36
38912;BME280;28444;48.056;14.408;2023-03-22T00:46:17;97477.13;;;9.21;82.96
38912;BME280;28444;48.056;14.408;2023-03-22T00:48:45;97477.84;;;9.22;83.44
38912;BME280;28444;48.056;14.408;2023-03-22T00:51:13;97479.34;;;9.15;83.52
38912;BME280;28444;48.056;14.408;2023-03-22T00:53:40;97470.75;;;9.19;83.30
38912;BME280;28444;48.056;14.408;2023-03-22T00:56:10;97481.13;;;9.20;83.29
38912;BME280;28444;48.056;14.408;2023-03-22T00:58:40;97485.81;;;9.27;82.58
38912;BME280;28444;48.056;14.408;2023-03-22T01:01:07;97480.19;;;9.25;83.14
38912;BME280;28444;48.056;14.408;2023-03-22T01:03:34;97485.88;;;9.20;82.77
38912;BME280;28444;48.056;14.408;2023-03-22T01:06:01;97479.84;;;9.21;83.26
38912;BME280;28444;48.056;14.408;2023-03-22T01:08:29;97489.84;;;9.26;82.79
38912;BME280;28444;48.056;14.408;2023-03-22T01:10:59;97482.84;;;9.40;82.39
38912;BME280;28444;48.056;14.408;2023-03-22T01:13:27;97482.38;;;9.27;82.44
38912;BME280;28444;48.056;14.408;2023-03-22T01:15:54;97485.88;;;9.20;82.44
38912;BME280;28444;48.056;14.408;2023-03-22T01:18:21;97483.16;;;9.20;82.86
38912;BME280;28444;48.056;14.408;2023-03-22T01:20:48;97481.47;;;9.24;82.83
38912;BME280;28444;48.056;14.408;2023-03-22T01:23:15;97481.28;;;9.22;82.53
38912;BME280;28444;48.056;14.408;2023-03-22T01:25:41;97478.56;;;9.22;82.35
38912;BME280;28444;48.056;14.408;2023-03-22T01:28:08;97482.97;;;9.18;82.77
38912;BME280;28444;48.056;14.408;2023-03-22T01:30:35;97477.31;;;9.23;82.47
38912;BME280;28444;48.056;14.408;2023-03-22T01:33:04;97479.13;;;9.21;82.51
38912;BME280;28444;48.056;14.408;2023-03-22T01:35:34;97483.16;;;9.20;82.57
38912;BME280;28444;48.056;14.408;2023-03-22T01:38:01;97473.09;;;9.22;83.11
38912;BME280;28444;48.056;14.408;2023-03-22T01:40:28;97473.84;;;9.23;82.52
38912;BME280;28444;48.056;14.408;2023-03-22T01:42:55;97478.03;;;9.24;83.16
38912;BME280;28444;48.056;14.408;2023-03-22T01:45:48;97474.06;;;9.17;83.14
38912;BME280;28444;48.056;14.408;2023-03-22T01:48:25;97472.78;;;9.18;83.16
38912;BME280;28444;48.056;14.408;2023-03-22T01:51:21;97465.31;;;9.19;83.76
38912;BME280;28444;48.056;14.408;2023-03-22T01:54:01;97459.97;;;9.28;83.32
38912;BME280;28444;48.056;14.408;2023-03-22T01:56:32;97460.22;;;9.23;84.67
38912;BME280;28444;48.056;14.408;2023-03-22T01:59:00;97463.31;;;9.19;84.66
38912;BME280;28444;48.056;14.408;2023-03-22T02:01:28;97461.69;;;9.16;85.06
38912;BME280;28444;48.056;14.408;2023-03-22T02:04:17;97460.41;;;9.17;85.76
38912;BME280;28444;48.056;14.408;2023-03-22T02:06:46;97454.81;;;9.07;86.20
38912;BME280;28444;48.056;14.408;2023-03-22T02:09:14;97454.38;;;8.94;87.34
38912;BME280;28444;48.056;14.408;2023-03-22T02:12:05;97443.25;;;8.99;86.80
38912;BME280;28444;48.056;14.408;2023-03-22T02:15:11;97441.94;;;9.00;86.74
38912;BME280;28444;48.056;14.408;2023-03-22T02:21:10;97438.69;;;9.02;86.68
38912;BME280;28444;48.056;14.408;2023-03-22T02:24:15;97439.75;;;9.06;86.57
38912;BME280;28444;48.056;14.408;2023-03-22T02:27:17;97445.91;;;9.07;86.50
38912;BME280;28444;48.056;14.408;2023-03-22T02:30:10;97435.19;;;9.09;85.84
38912;BME280;28444;48.056;14.408;2023-03-22T02:37:18;97426.19;;;9.24;84.95
38912;BME280;28444;48.056;14.408;2023-03-22T02:42:51;97413.22;;;9.32;83.92
38912;BME280;28444;48.056;14.408;2023-03-22T02:45:44;97408.97;;;9.38;83.54
38912;BME280;28444;48.056;14.408;2023-03-22T02:48:46;97401.91;;;9.35;83.77
38912;BME280;28444;48.056;14.408;2023-03-22T02:51:21;97400.47;;;9.34;84.10
38912;BME280;28444;48.056;14.408;2023-03-22T02:54:18;97398.13;;;9.31;84.09
38912;BME280;28444;48.056;14.408;2023-03-22T02:56:59;97395.94;;;9.29;84.13
38912;BME280;28444;48.056;14.408;2023-03-22T02:59:42;97398.78;;;9.14;84.80
38912;BME280;28444;48.056;14.408;2023-03-22T03:02:25;97395.06;;;9.02;85.83
38912;BME280;28444;48.056;14.408;2023-03-22T03:05:08;97398.59;;;8.87;86.75
38912;BME280;28444;48.056;14.408;2023-03-22T03:07:55;97386.22;;;8.86;86.63
38912;BME280;28444;48.056;14.408;2023-03-22T03:10:39;97400.16;;;8.98;86.69
38912;BME280;28444;48.056;14.408;2023-03-22T03:13:15;97398.28;;;9.08;85.93
38912;BME280;28444;48.056;14.408;2023-03-22T03:15:49;97394.44;;;9.11;85.71
38912;BME280;28444;48.056;14.408;2023-03-22T03:19:09;97399.88;;;9.11;85.11
38912;BME280;28444;48.056;14.408;2023-03-22T03:21:35;97396.22;;;9.16;85.14
38912;BME280;28444;48.056;14.408;2023-03-22T03:24:36;97396.63;;;9.12;85.51
38912;BME280;28444;48.056;14.408;2023-03-22T03:27:16;97387.88;;;9.14;85.04
38912;BME280;28444;48.056;14.408;2023-03-22T03:29:55;97395.72;;;9.10;84.88
38912;BME280;28444;48.056;14.408;2023-03-22T03:32:30;97394.59;;;9.13;85.02
38912;BME280;28444;48.056;14.408;2023-03-22T03:35:06;97393.84;;;9.20;84.19
38912;BME280;28444;48.056;14.408;2023-03-22T03:37:48;97395.44;;;9.23;84.22
38912;BME280;28444;48.056;14.408;2023-03-22T03:40:25;97396.72;;;9.22;83.56
38912;BME280;28444;48.056;14.408;2023-03-22T03:42:55;97395.59;;;9.25;83.59
38912;BME280;28444;48.056;14.408;2023-03-22T03:45:23;97401.06;;;9.25;83.71
38912;BME280;28444;48.056;14.408;2023-03-22T03:47:52;97401.44;;;9.22;83.80
38912;BME280;28444;48.056;14.408;2023-03-22T03:50:24;97393.66;;;9.18;83.85
38912;BME280;28444;48.056;14.408;2023-03-22T03:52:52;97402.56;;;9.19;83.77
38912;BME280;28444;48.056;14.408;2023-03-22T03:55:21;97405.84;;;9.17;83.68
38912;BME280;28444;48.056;14.408;2023-03-22T03:57:48;97401.28;;;9.20;84.13
38912;BME280;28444;48.056;14.408;2023-03-22T04:00:15;97404.22;;;9.14;83.96
38912;BME280;28444;48.056;14.408;2023-03-22T04:02:43;97407.72;;;9.07;84.19
38912;BME280;28444;48.056;14.408;2023-03-22T04:05:10;97401.78;;;9.01;84.62
38912;BME280;28444;48.056;14.408;2023-03-22T04:07:38;97403.44;;;8.96;85.11
38912;BME280;28444;48.056;14.408;2023-03-22T04:10:05;97407.84;;;8.91;85.51
38912;BME280;28444;48.056;14.408;2023-03-22T04:12:33;97403.09;;;8.92;85.63
38912;BME280;28444;48.056;14.408;2023-03-22T04:14:59;97404.03;;;8.87;85.43
38912;BME280;28444;48.056;14.408;2023-03-22T04:17:26;97407.88;;;8.84;85.14
38912;BME280;28444;48.056;14.408;2023-03-22T04:19:57;97403.22;;;8.69;85.71
38912;BME280;28444;48.056;14.408;2023-03-22T04:22:24;97414.13;;;8.13;88.05
38912;BME280;28444;48.056;14.408;2023-03-22T04:24:51;97417.44;;;7.96;89.83
38912;BME280;28444;48.056;14.408;2023-03-22T04:27:20;97419.44;;;7.88;90.44
38912;BME280;28444;48.056;14.408;2023-03-22T04:29:47;97419.44;;;7.96;90.10
38912;BME280;28444;48.056;14.408;2023-03-22T04:32:15;97413.06;;;7.93;90.36
38912;BME280;28444;48.056;14.408;2023-03-22T04:34:42;97417.25;;;7.94;91.04
38912;BME280;28444;48.056;14.408;2023-03-22T04:37:08;97412.53;;;8.03;90.83
38912;BME280;28444;48.056;14.408;2023-03-22T04:39:35;97416.16;;;7.97;91.23
38912;BME280;28444;48.056;14.408;2023-03-22T04:42:02;97410.53;;;7.95;91.27
38912;BME280;28444;48.056;14.408;2023-03-22T04:44:29;97412.69;;;7.97;91.62
38912;BME280;28444;48.056;14.408;2023-03-22T04:46:56;97425.59;;;7.96;91.22
38912;BME280;28444;48.056;14.408;2023-03-22T04:49:23;97415.78;;;7.93;91.77
38912;BME280;28444;48.056;14.408;2023-03-22T04:51:49;97423.03;;;7.99;90.77
38912;BME280;28444;48.056;14.408;2023-03-22T04:54:17;97417.78;;;7.93;91.00
38912;BME280;28444;48.056;14.408;2023-03-22T04:56:43;97417.06;;;7.92;91.55
38912;BME280;28444;48.056;14.408;2023-03-22T04:59:10;97417.97;;;7.87;91.23
38912;BME280;28444;48.056;14.408;2023-03-22T05:01:37;97419.81;;;7.85;91.66
38912;BME280;28444;48.056;14.408;2023-03-22T05:04:05;97419.44;;;7.88;91.67
38912;BME280;28444;48.056;14.408;2023-03-22T05:06:32;97428.69;;;7.93;91.41
38912;BME280;28444;48.056;14.408;2023-03-22T05:08:59;97430.84;;;7.94;90.91
38912;BME280;28444;48.056;14.408;2023-03-22T05:11:26;97434.50;;;7.82;90.90
38912;BME280;28444;48.056;14.408;2023-03-22T05:13:54;97434.31;;;7.80;91.12
38912;BME280;28444;48.056;14.408;2023-03-22T05:16:21;97440.69;;;7.75;91.60
38912;BME280;28444;48.056;14.408;2023-03-22T05:18:47;97447.41;;;7.74;91.18
38912;BME280;28444;48.056;14.408;2023-03-22T05:21:16;97453.38;;;7.64;91.27
38912;BME280;28444;48.056;14.408;2023-03-22T05:23:48;97458.63;;;7.62;92.16
38912;BME280;28444;48.056;14.408;2023-03-22T05:26:17;97465.00;;;7.65;92.01
38912;BME280;28444;48.056;14.408;2023-03-22T05:28:45;97461.75;;;7.74;91.77
38912;BME280;28444;48.056;14.408;2023-03-22T05:31:12;97460.66;;;7.85;91.21
38912;BME280;28444;48.056;14.408;2023-03-22T05:33:40;97456.81;;;7.95;91.35
38912;BME280;28444;48.056;14.408;2023-03-22T05:36:08;97456.09;;;8.03;90.79
38912;BME280;28444;48.056;14.408;2023-03-22T05:38:36;97449.38;;;8.04;90.30
38912;BME280;28444;48.056;14.408;2023-03-22T05:41:04;97460.78;;;8.02;90.23
38912;BME280;28444;48.056;14.408;2023-03-22T05:43:31;97459.91;;;8.00;90.10
38912;BME280;28444;48.056;14.408;2023-03-22T05:45:58;97467.72;;;7.95;89.89
38912;BME280;28444;48.056;14.408;2023-03-22T05:48:25;97459.19;;;7.99;88.79
38912;BME280;28444;48.056;14.408;2023-03-22T05:50:51;97461.53;;;8.03;88.43
38912;BME280;28444;48.056;14.408;2023-03-22T05:53:18;97455.91;;;8.01;89.12
38912;BME280;28444;48.056;14.408;2023-03-22T05:55:44;97455.00;;;7.98;89.81
38912;BME280;28444;48.056;14.408;2023-03-22T05:58:11;97456.81;;;7.95;89.68
38912;BME280;28444;48.056;14.408;2023-03-22T06:00:38;97470.63;;;7.82;89.81
38912;BME280;28444;48.056;14.408;2023-03-22T06:03:05;97463.53;;;7.79;90.42
38912;BME280;28444;48.056;14.408;2023-03-22T06:05:33;97460.09;;;7.79;91.09
38912;BME280;28444;48.056;14.408;2023-03-22T06:08:02;97459.53;;;7.80;90.56
38912;BME280;28444;48.056;14.408;2023-03-22T06:10:29;97466.63;;;7.83;90.39
38912;BME280;28444;48.056;14.408;2023-03-22T06:12:56;97459.53;;;7.80;89.96
38912;BME280;28444;48.056;14.408;2023-03-22T06:15:23;97462.09;;;7.78;89.52
38912;BME280;28444;48.056;14.408;2023-03-22T06:17:49;97447.03;;;7.77;90.53
38912;BME280;28444;48.056;14.408;2023-03-22T06:20:16;97445.59;;;7.68;90.10
38912;BME280;28444;48.056;14.408;2023-03-22T06:22:43;97444.84;;;7.76;90.58
38912;BME280;28444;48.056;14.408;2023-03-22T06:25:10;97443.59;;;7.84;89.86
38912;BME280;28444;48.056;14.408;2023-03-22T06:27:37;97430.16;;;7.79;90.66
38912;BME280;28444;48.056;14.408;2023-03-22T06:30:04;97434.13;;;7.93;90.84
38912;BME280;28444;48.056;14.408;2023-03-22T06:32:31;97434.66;;;8.07;90.67
38912;BME280;28444;48.056;14.408;2023-03-22T06:35:13;97435.53;;;8.25;89.84
38912;BME280;28444;48.056;14.408;2023-03-22T06:37:41;97440.97;;;8.40;89.37
38912;BME280;28444;48.056;14.408;2023-03-22T06:40:08;97443.66;;;8.48;88.52
38912;BME280;28444;48.056;14.408;2023-03-22T06:42:35;97444.31;;;8.63;87.61
38912;BME280;28444;48.056;14.408;2023-03-22T06:45:03;97437.56;;;8.72;86.28
38912;BME280;28444;48.056;14.408;2023-03-22T06:47:29;97446.72;;;8.92;86.02
38912;BME280;28444;48.056;14.408;2023-03-22T06:49:56;97449.38;;;9.07;85.47
38912;BME280;28444;48.056;14.408;2023-03-22T06:52:23;97452.75;;;9.23;84.34
38912;BME280;28444;48.056;14.408;2023-03-22T06:54:50;97445.56;;;9.35;83.97
38912;BME280;28444;48.056;14.408;2023-03-22T06:57:16;97451.25;;;9.55;83.32
38912;BME280;28444;48.056;14.408;2023-03-22T06:59:43;97449.06;;;9.78;81.15
38912;BME280;28444;48.056;14.408;2023-03-22T07:02:11;97451.50;;;9.92;80.96
38912;BME280;28444;48.056;14.408;2023-03-22T07:04:38;97452.31;;;10.02;81.11
38912;BME280;28444;48.056;14.408;2023-03-22T07:07:05;97449.59;;;10.19;80.84
38912;BME280;28444;48.056;14.408;2023-03-22T07:09:31;97456.34;;;10.18;80.76
38912;BME280;28444;48.056;14.408;2023-03-22T07:11:58;97448.66;;;10.24;80.84
38912;BME280;28444;48.056;14.408;2023-03-22T07:14:24;97453.75;;;10.20;81.27
38912;BME280;28444;48.056;14.408;2023-03-22T07:16:51;97453.63;;;10.18;81.40
38912;BME280;28444;48.056;14.408;2023-03-22T07:19:18;97458.81;;;10.24;80.88
38912;BME280;28444;48.056;14.408;2023-03-22T07:21:44;97450.09;;;10.25;81.90
38912;BME280;28444;48.056;14.408;2023-03-22T07:24:11;97463.19;;;10.27;82.08
38912;BME280;28444;48.056;14.408;2023-03-22T07:26:39;97460.69;;;10.21;82.17
38912;BME280;28444;48.056;14.408;2023-03-22T07:29:06;97461.28;;;10.37;82.19
38912;BME280;28444;48.056;14.408;2023-03-22T07:31:33;97464.09;;;10.64;81.68
38912;BME280;28444;48.056;14.408;2023-03-22T07:34:02;97462.91;;;10.84;80.72
38912;BME280;28444;48.056;14.408;2023-03-22T07:36:29;97467.16;;;10.95;80.66
38912;BME280;28444;48.056;14.408;2023-03-22T07:38:56;97461.91;;;11.07;80.47
38912;BME280;28444;48.056;14.408;2023-03-22T07:41:23;97460.66;;;11.18;80.09
38912;BME280;28444;48.056;14.408;2023-03-22T07:43:51;97463.28;;;11.25;79.61
38912;BME280;28444;48.056;14.408;2023-03-22T07:46:25;97465.06;;;11.30;78.92
38912;BME280;28444;48.056;14.408;2023-03-22T07:48:52;97459.16;;;11.34;78.24
38912;BME280;28444;48.056;14.408;2023-03-22T07:51:18;97465.09;;;11.40;78.47
38912;BME280;28444;48.056;14.408;2023-03-22T07:53:45;97465.66;;;11.39;78.45
38912;BME280;28444;48.056;14.408;2023-03-22T07:56:12;97461.19;;;11.33;78.48
38912;BME280;28444;48.056;14.408;2023-03-22T07:58:39;97467.22;;;11.32;78.37
38912;BME280;28444;48.056;14.408;2023-03-22T08:01:07;97467.31;;;11.24;78.09
38912;BME280;28444;48.056;14.408;2023-03-22T08:03:35;97469.59;;;11.18;79.13
38912;BME280;28444;48.056;14.408;2023-03-22T08:06:04;97466.53;;;11.14;79.15
38912;BME280;28444;48.056;14.408;2023-03-22T08:08:35;97464.19;;;11.01;78.79
38912;BME280;28444;48.056;14.408;2023-03-22T08:11:06;97466.94;;;10.83;79.50
38912;BME280;28444;48.056;14.408;2023-03-22T08:13:33;97469.09;;;10.85;79.68
38912;BME280;28444;48.056;14.408;2023-03-22T08:15:59;97466.53;;;10.87;79.61
38912;BME280;28444;48.056;14.408;2023-03-22T08:18:27;97466.94;;;10.83;78.82
38912;BME280;28444;48.056;14.408;2023-03-22T08:20:58;97469.91;;;10.95;79.20
38912;BME280;28444;48.056;14.408;2023-03-22T08:23:26;97470.38;;;11.01;78.87
38912;BME280;28444;48.056;14.408;2023-03-22T08:26:07;97477.03;;;11.08;77.73
38912;BME280;28444;48.056;14.408;2023-03-22T08:28:34;97474.31;;;11.08;77.25
38912;BME280;28444;48.056;14.408;2023-03-22T08:31:01;97467.19;;;11.22;76.08
38912;BME280;28444;48.056;14.408;2023-03-22T08:33:27;97461.53;;;11.20;76.85
38912;BME280;28444;48.056;14.408;2023-03-22T08:36:09;97464.03;;;11.26;76.10
38912;BME280;28444;48.056;14.408;2023-03-22T08:38:36;97462.03;;;11.36;74.76
38912;BME280;28444;48.056;14.408;2023-03-22T08:41:03;97458.16;;;11.39;75.10
38912;BME280;28444;48.056;14.408;2023-03-22T08:43:30;97459.22;;;11.44;74.98
38912;BME280;28444;48.056;14.408;2023-03-22T08:45:56;97459.81;;;11.52;75.26
38912;BME280;28444;48.056;14.408;2023-03-22T08:48:23;97457.09;;;11.62;73.48
38912;BME280;28444;48.056;14.408;2023-03-22T08:50:50;97462.34;;;11.77;72.20
38912;BME280;28444;48.056;14.408;2023-03-22T08:53:17;97456.78;;;11.85;72.70
38912;BME280;28444;48.056;14.408;2023-03-22T08:55:44;97456.94;;;11.96;73.25
38912;BME280;28444;48.056;14.408;2023-03-22T08:58:14;97447.59;;;12.09;71.39
38912;BME280;28444;48.056;14.408;2023-03-22T09:00:42;97445.28;;;12.15;70.07
38912;BME280;28444;48.056;14.408;2023-03-22T09:03:15;97446.28;;;12.20;70.06
38912;BME280;28444;48.056;14.408;2023-03-22T09:05:42;97441.97;;;12.46;69.73
38912;BME280;28444;48.056;14.408;2023-03-22T09:08:09;97449.34;;;12.53;69.53
38912;BME280;28444;48.056;14.408;2023-03-22T09:10:48;97446.00;;;12.64;68.83
38912;BME280;28444;48.056;14.408;2023-03-22T09:13:18;97440.19;;;12.89;68.43
38912;BME280;28444;48.056;14.408;2023-03-22T09:15:45;97432.50;;;12.97;69.18
38912;BME280;28444;48.056;14.408;2023-03-22T09:18:13;97436.22;;;13.12;69.04
38912;BME280;28444;48.056;14.408;2023-03-22T09:20:40;97435.31;;;13.29;68.06
38912;BME280;28444;48.056;14.408;2023-03-22T09:23:06;97429.34;;;13.42;66.41
38912;BME280;28444;48.056;14.408;2023-03-22T09:25:33;97424.97;;;13.58;66.95
38912;BME280;28444;48.056;14.408;2023-03-22T09:28:00;97424.03;;;13.87;66.26
38912;BME280;28444;48.056;14.408;2023-03-22T09:30:27;97426.63;;;13.94;64.32
38912;BME280;28444;48.056;14.408;2023-03-22T09:32:54;97431.78;;;14.00;63.92
38912;BME280;28444;48.056;14.408;2023-03-22T09:35:21;97416.53;;;14.09;63.65
38912;BME280;28444;48.056;14.408;2023-03-22T09:37:48;97415.03;;;14.17;63.78
38912;BME280;28444;48.056;14.408;2023-03-22T09:40:15;97415.28;;;14.21;62.73
38912;BME280;28444;48.056;14.408;2023-03-22T09:42:45;97409.31;;;14.25;63.84
38912;BME280;28444;48.056;14.408;2023-03-22T09:45:17;97411.75;;;14.31;64.65
38912;BME280;28444;48.056;14.408;2023-03-22T09:47:46;97404.22;;;14.31;65.41
38912;BME280;28444;48.056;14.408;2023-03-22T09:50:19;97403.50;;;14.31;63.48
38912;BME280;28444;48.056;14.408;2023-03-22T09:52:46;97404.53;;;14.26;62.11
38912;BME280;28444;48.056;14.408;2023-03-22T09:55:38;97394.97;;;14.27;62.56
38912;BME280;28444;48.056;14.408;2023-03-22T10:01:15;97385.56;;;14.41;64.01
38912;BME280;28444;48.056;14.408;2023-03-22T10:04:18;97385.97;;;14.48;60.53
38912;BME280;28444;48.056;14.408;2023-03-22T10:06:49;97388.41;;;14.53;60.80
38912;BME280;28444;48.056;14.408;2023-03-22T10:09:33;97385.56;;;14.41;60.33
38912;BME280;28444;48.056;14.408;2023-03-22T10:12:31;97381.28;;;14.38;60.18
38912;BME280;28444;48.056;14.408;2023-03-22T10:15:07;97383.31;;;14.38;59.67
38912;BME280;28444;48.056;14.408;2023-03-22T10:17:37;97374.31;;;14.37;61.49
38912;BME280;28444;48.056;14.408;2023-03-22T10:20:23;97374.97;;;14.48;62.56
38912;BME280;28444;48.056;14.408;2023-03-22T10:22:55;97374.66;;;14.53;60.59
38912;BME280;28444;48.056;14.408;2023-03-22T10:25:35;97370.84;;;14.58;57.40
38912;BME280;28444;48.056;14.408;2023-03-22T10:28:14;97364.16;;;14.73;56.25
38912;BME280;28444;48.056;14.408;2023-03-22T10:30:42;97361.78;;;14.79;56.74
38912;BME280;28444;48.056;14.408;2023-03-22T10:33:15;97362.28;;;14.87;54.07
38912;BME280;28444;48.056;14.408;2023-03-22T10:35:45;97360.38;;;14.90;56.16
38912;BME280;28444;48.056;14.408;2023-03-22T10:38:20;97352.97;;;14.92;56.82
38912;BME280;28444;48.056;14.408;2023-03-22T10:40:48;97347.47;;;14.92;57.14
38912;BME280;28444;48.056;14.408;2023-03-22T10:43:21;97343.84;;;15.02;57.60
38912;BME280;28444;48.056;14.408;2023-03-22T10:45:51;97345.53;;;15.07;58.71
38912;BME280;28444;48.056;14.408;2023-03-22T10:48:31;97339.44;;;15.20;57.96
38912;BME280;28444;48.056;14.408;2023-03-22T10:50:59;97341.13;;;15.25;56.88
38912;BME280;28444;48.056;14.408;2023-03-22T10:53:42;97337.63;;;15.25;55.90
38912;BME280;28444;48.056;14.408;2023-03-22T10:56:13;97332.72;;;15.23;56.84
38912;BME280;28444;48.056;14.408;2023-03-22T10:58:41;97334.41;;;15.40;58.14
38912;BME280;28444;48.056;14.408;2023-03-22T11:01:10;97335.34;;;15.45;58.91
38912;BME280;28444;48.056;14.408;2023-03-22T11:06:22;97329.44;;;15.50;60.55
38912;BME280;28444;48.056;14.408;2023-03-22T11:08:55;97335.94;;;15.55;57.96
38912;BME280;28444;48.056;14.408;2023-03-22T11:11:37;97330.41;;;15.55;58.68
38912;BME280;28444;48.056;14.408;2023-03-22T11:14:18;97333.00;;;15.64;57.75
38912;BME280;28444;48.056;14.408;2023-03-22T11:17:10;97331.69;;;15.77;55.37
38912;BME280;28444;48.056;14.408;2023-03-22T11:19:41;97331.44;;;15.85;53.41
38912;BME280;28444;48.056;14.408;2023-03-22T11:22:35;97330.63;;;15.71;54.50
38912;BME280;28444;48.056;14.408;2023-03-22T11:25:08;97330.53;;;15.69;55.60
38912;BME280;28444;48.056;14.408;2023-03-22T11:27:49;97327.78;;;15.69;55.40
38912;BME280;28444;48.056;14.408;2023-03-22T11:32:48;97317.59;;;16.48;57.41
38912;BME280;28444;48.056;14.408;2023-03-22T11:35:25;97312.06;;;16.34;57.64
38912;BME280;28444;48.056;14.408;2023-03-22T11:37:55;97305.59;;;16.29;54.02
38912;BME280;28444;48.056;14.408;2023-03-22T11:40:24;97306.59;;;16.22;53.30
38912;BME280;28444;48.056;14.408;2023-03-22T11:42:54;97299.47;;;16.31;54.08
38912;BME280;28444;48.056;14.408;2023-03-22T11:45:27;97299.03;;;16.23;56.08
38912;BME280;28444;48.056;14.408;2023-03-22T11:48:04;97300.13;;;16.18;56.95
38912;BME280;28444;48.056;14.408;2023-03-22T11:50:36;97297.38;;;16.18;55.78
38912;BME280;28444;48.056;14.408;2023-03-22T11:53:07;97298.94;;;16.21;54.49
38912;BME280;28444;48.056;14.408;2023-03-22T11:55:37;97294.75;;;16.20;51.80
38912;BME280;28444;48.056;14.408;2023-03-22T11:58:05;97301.63;;;16.07;51.95
38912;BME280;28444;48.056;14.408;2023-03-22T12:00:35;97289.72;;;16.16;52.77
38912;BME280;28444;48.056;14.408;2023-03-22T12:03:06;97291.59;;;16.25;54.36
38912;BME280;28444;48.056;14.408;2023-03-22T12:05:41;97293.63;;;16.25;51.56
38912;BME280;28444;48.056;14.408;2023-03-22T12:08:30;97287.22;;;16.34;52.81
38912;BME280;28444;48.056;14.408;2023-03-22T12:11:07;97288.16;;;16.39;53.20
38912;BME280;28444;48.056;14.408;2023-03-22T12:13:50;97276.16;;;16.59;52.38
38912;BME280;28444;48.056;14.408;2023-03-22T12:16:35;97282.09;;;16.68;50.28
38912;BME280;28444;48.056;14.408;2023-03-22T12:19:37;97269.84;;;16.71;52.77
38912;BME280;28444;48.056;14.408;2023-03-22T12:22:13;97261.88;;;16.77;53.14
38912;BME280;28444;48.056;14.408;2023-03-22T12:24:41;97253.59;;;16.77;50.35
38912;BME280;28444;48.056;14.408;2023-03-22T12:27:28;97258.31;;;17.02;50.67
38912;BME280;28444;48.056;14.408;2023-03-22T12:30:00;97254.50;;;17.23;48.42
38912;BME280;28444;48.056;14.408;2023-03-22T12:32:33;97249.19;;;17.27;50.94
38912;BME280;28444;48.056;14.408;2023-03-22T12:35:04;97255.53;;;17.16;49.11
38912;BME280;28444;48.056;14.408;2023-03-22T12:37:46;97252.06;;;17.15;50.84
38912;BME280;28444;48.056;14.408;2023-03-22T12:40:25;97254.41;;;17.21;49.74
38912;BME280;28444;48.056;14.408;2023-03-22T12:43:15;97248.78;;;17.19;48.28
38912;BME280;28444;48.056;14.408;2023-03-22T12:45:47;97245.41;;;17.06;48.52
38912;BME280;28444;48.056;14.408;2023-03-22T12:48:23;97238.25;;;17.01;48.82
38912;BME280;28444;48.056;14.408;2023-03-22T12:51:03;97234.34;;;17.06;50.17
38912;BME280;28444;48.056;14.408;2023-03-22T12:53:35;97226.00;;;17.04;48.09
38912;BME280;28444;48.056;14.408;2023-03-22T12:56:13;97234.59;;;17.11;50.52
38912;BME280;28444;48.056;14.408;2023-03-22T12:58:45;97221.03;;;17.30;48.71
38912;BME280;28444;48.056;14.408;2023-03-22T13:01:53;97219.50;;;17.27;47.02
38912;BME280;28444;48.056;14.408;2023-03-22T13:04:48;97225.75;;;17.28;47.18
38912;BME280;28444;48.056;14.408;2023-03-22T13:07:50;97213.44;;;17.45;49.46
38912;BME280;28444;48.056;14.408;2023-03-22T13:11:00;97207.38;;;17.48;49.68
38912;BME280;28444;48.056;14.408;2023-03-22T13:13:40;97204.25;;;17.40;49.89
38912;BME280;28444;48.056;14.408;2023-03-22T13:16:18;97208.63;;;17.45;48.90
38912;BME280;28444;48.056;14.408;2023-03-22T13:19:02;97191.31;;;17.45;49.11
38912;BME280;28444;48.056;14.408;2023-03-22T13:21:42;97196.34;;;17.48;47.44
38912;BME280;28444;48.056;14.408;2023-03-22T13:26:49;97194.13;;;17.61;49.09
38912;BME280;28444;48.056;14.408;2023-03-22T13:29:32;97190.19;;;17.50;46.77
38912;BME280;28444;48.056;14.408;2023-03-22T13:32:30;97183.97;;;17.36;49.35
38912;BME280;28444;48.056;14.408;2023-03-22T13:34:59;97188.50;;;17.29;48.13
38912;BME280;28444;48.056;14.408;2023-03-22T13:37:32;97184.53;;;17.18;50.35
38912;BME280;28444;48.056;14.408;2023-03-22T13:40:13;97185.38;;;17.07;50.85
38912;BME280;28444;48.056;14.408;2023-03-22T13:42:47;97182.84;;;16.97;51.71
38912;BME280;28444;48.056;14.408;2023-03-22T13:45:30;97178.53;;;16.94;51.78